Time;durP1;ratioP1;P1;durP2;ratioP2;P2;SDS_P1;SDS_P2;PMS_P1;PMS_P2;Temp;Humidity;BMP_temperature;BMP_pressure;BME280_temperature;BME280_humidity;BME280_pressure;Samples;Min_cycle;Max_cycle;Signal;HPM_P1;HPM_P2
2022/03/12 00:00:07;;;;;;;10.10;6.40;;;6.40;94.30;;;;;;460585;258;28575;-74
2022/03/12 00:02:07;;;;;;;10.10;6.50;;;6.40;94.20;;;;;;460458;258;28035;-71
2022/03/12 00:04:08;;;;;;;9.17;6.53;;;6.40;94.40;;;;;;460561;258;28212;-72
2022/03/12 00:06:09;;;;;;;7.77;5.63;;;6.30;94.30;;;;;;460558;258;28198;-71
2022/03/12 00:08:12;;;;;;;8.20;6.27;;;6.30;94.70;;;;;;460585;258;28075;-71
2022/03/12 00:10:13;;;;;;;7.97;6.20;;;6.30;94.80;;;;;;460483;258;28200;-75
2022/03/12 00:12:19;;;;;;;7.80;6.37;;;6.30;94.90;;;;;;460479;258;28121;-71
2022/03/12 00:14:15;;;;;;;10.40;6.83;;;6.20;94.60;;;;;;460087;258;28081;-71
2022/03/12 00:16:22;;;;;;;6.90;5.83;;;6.30;94.40;;;;;;460527;258;28505;-71
2022/03/12 00:18:20;;;;;;;8.40;5.40;;;6.20;94.40;;;;;;459983;257;28803;-71
2022/03/12 00:20:21;;;;;;;8.37;6.20;;;6.20;95.00;;;;;;460388;258;28022;-73
2022/03/12 00:22:20;;;;;;;8.90;6.13;;;6.10;95.50;;;;;;460302;258;28310;-71
2022/03/12 00:24:21;;;;;;;11.40;6.73;;;6.10;95.60;;;;;;460409;258;28564;-71
2022/03/12 00:26:23;;;;;;;10.80;6.53;;;6.10;95.50;;;;;;460552;258;30175;-71
2022/03/12 00:28:23;;;;;;;8.60;6.47;;;6.10;95.50;;;;;;460504;258;29029;-71
2022/03/12 00:30:24;;;;;;;8.47;6.80;;;6.00;95.60;;;;;;460615;258;29516;-75
2022/03/12 00:32:26;;;;;;;9.18;6.53;;;6.00;95.90;;;;;;460589;258;27661;-73
2022/03/12 00:34:26;;;;;;;8.97;6.53;;;5.90;96.10;;;;;;460543;258;27704;-71
2022/03/12 00:36:28;;;;;;;7.90;6.07;;;6.00;96.30;;;;;;460556;258;28540;-71
2022/03/12 00:38:29;;;;;;;8.60;6.53;;;5.90;96.40;;;;;;460606;258;28959;-71
2022/03/12 00:40:30;;;;;;;8.80;5.80;;;5.90;96.00;;;;;;460579;258;29007;-72
2022/03/12 00:42:32;;;;;;;7.60;5.77;;;5.90;96.00;;;;;;460532;258;27644;-71
2022/03/12 00:44:33;;;;;;;10.07;5.93;;;5.90;95.20;;;;;;460569;258;29406;-72
2022/03/12 00:46:34;;;;;;;8.07;5.73;;;5.90;96.30;;;;;;460562;258;28652;-75
2022/03/12 00:48:35;;;;;;;9.77;6.10;;;5.90;96.40;;;;;;460601;258;28512;-71
2022/03/12 00:50:37;;;;;;;7.47;5.30;;;5.90;96.00;;;;;;460586;258;28163;-72
2022/03/12 00:52:38;;;;;;;7.23;5.60;;;5.90;96.80;;;;;;460538;258;29051;-71
2022/03/12 00:54:39;;;;;;;7.65;5.68;;;5.90;96.50;;;;;;460562;258;28498;-72
2022/03/12 00:56:40;;;;;;;6.78;5.30;;;5.90;96.10;;;;;;460533;258;27589;-71
2022/03/12 00:58:45;;;;;;;9.18;6.05;;;5.90;96.80;;;;;;460585;258;27565;-71
2022/03/12 01:00:43;;;;;;;9.53;5.67;;;5.80;97.00;;;;;;460324;258;27677;-72
2022/03/12 01:02:44;;;;;;;6.22;5.03;;;5.80;96.40;;;;;;460548;258;28967;-71
2022/03/12 01:04:45;;;;;;;5.75;4.62;;;5.80;97.30;;;;;;460576;258;28171;-71
2022/03/12 01:06:47;;;;;;;9.85;6.40;;;5.80;96.90;;;;;;460590;258;28088;-74
2022/03/12 01:08:48;;;;;;;8.68;6.25;;;5.80;97.20;;;;;;460568;258;27576;-71
2022/03/12 01:10:49;;;;;;;9.50;6.68;;;5.70;97.20;;;;;;460612;258;27580;-71
2022/03/12 01:12:50;;;;;;;9.90;6.62;;;5.70;97.20;;;;;;460568;258;27639;-71
2022/03/12 01:14:52;;;;;;;10.55;6.30;;;5.70;97.50;;;;;;460538;258;27603;-71
2022/03/12 01:16:53;;;;;;;11.23;7.10;;;5.70;97.10;;;;;;460608;258;27616;-74
2022/03/12 01:18:54;;;;;;;11.03;7.70;;;5.70;96.90;;;;;;460587;258;29421;-70
2022/03/12 01:20:55;;;;;;;13.77;7.85;;;5.70;96.90;;;;;;460616;258;29510;-72
2022/03/12 01:22:57;;;;;;;10.40;7.30;;;5.70;96.80;;;;;;460559;258;27553;-71
2022/03/12 01:24:58;;;;;;;13.15;7.80;;;5.80;96.90;;;;;;460601;258;28063;-71
2022/03/12 01:26:59;;;;;;;11.57;7.82;;;5.90;97.10;;;;;;460586;258;27704;-73
2022/03/12 01:29:00;;;;;;;11.60;8.10;;;5.90;97.30;;;;;;460591;258;27566;-71
2022/03/12 01:31:02;;;;;;;10.07;7.45;;;5.90;97.20;;;;;;460587;258;27752;-71
2022/03/12 01:33:03;;;;;;;7.97;6.10;;;6.00;97.30;;;;;;460574;258;28093;-71
2022/03/12 01:35:04;;;;;;;12.05;7.30;;;6.00;97.60;;;;;;460574;258;29444;-71
2022/03/12 01:37:05;;;;;;;9.73;6.82;;;6.10;97.90;;;;;;460570;258;27694;-75
2022/03/12 01:39:07;;;;;;;10.37;7.50;;;6.10;97.60;;;;;;460574;258;27559;-73
2022/03/12 01:41:08;;;;;;;9.40;6.90;;;6.20;97.90;;;;;;460588;258;27976;-71
2022/03/12 01:43:09;;;;;;;7.80;5.97;;;6.20;98.30;;;;;;460568;258;28944;-71
2022/03/12 01:45:10;;;;;;;8.50;6.05;;;6.20;98.20;;;;;;460587;258;28313;-71
2022/03/12 01:47:13;;;;;;;9.50;6.27;;;6.30;98.10;;;;;;460553;258;27632;-72
2022/03/12 01:49:14;;;;;;;9.57;7.03;;;6.40;98.50;;;;;;460496;258;28065;-71
2022/03/12 01:51:14;;;;;;;8.97;6.77;;;6.50;98.80;;;;;;460511;258;28184;-72
2022/03/12 01:53:16;;;;;;;10.33;6.70;;;6.50;99.10;;;;;;460474;258;30768;-71
2022/03/12 01:55:17;;;;;;;10.40;6.60;;;6.50;99.20;;;;;;460538;258;27946;-71
2022/03/12 01:57:18;;;;;;;9.67;6.87;;;6.50;99.40;;;;;;460503;258;28282;-72
2022/03/12 01:59:20;;;;;;;9.37;6.70;;;6.50;99.70;;;;;;460525;258;28151;-72
2022/03/12 02:01:20;;;;;;;7.80;6.20;;;6.50;99.90;;;;;;460556;258;28071;-72
2022/03/12 02:03:28;;;;;;;8.00;5.87;;;6.50;99.90;;;;;;460556;258;28063;-71
2022/03/12 02:05:25;;;;;;;8.30;5.97;;;6.50;99.90;;;;;;460081;258;28851;-71
2022/03/12 02:07:24;;;;;;;7.20;5.43;;;6.50;99.90;;;;;;460362;256;27615;-71
2022/03/12 02:09:25;;;;;;;7.27;5.47;;;6.50;99.90;;;;;;460525;258;28124;-71
2022/03/12 02:11:30;;;;;;;8.80;5.87;;;6.50;99.90;;;;;;460524;258;28163;-71
2022/03/12 02:13:34;;;;;;;5.87;5.27;;;6.50;99.90;;;;;;460570;258;27739;-71
2022/03/12 02:15:32;;;;;;;6.90;5.43;;;6.60;99.90;;;;;;460336;258;28189;-72
2022/03/12 02:17:34;;;;;;;8.00;5.33;;;6.60;99.90;;;;;;460600;258;28113;-71
2022/03/12 02:19:35;;;;;;;6.83;5.43;;;6.60;99.90;;;;;;460573;258;28105;-71
2022/03/12 02:21:38;;;;;;;8.60;4.93;;;6.50;99.90;;;;;;462686;254;28544;-71
2022/03/12 02:23:37;;;;;;;7.70;5.05;;;6.60;99.90;;;;;;466705;254;27494;-71
2022/03/12 02:25:38;;;;;;;6.90;5.07;;;6.50;99.90;;;;;;466816;254;27980;-73
2022/03/12 02:27:40;;;;;;;6.40;4.97;;;6.50;99.90;;;;;;466692;254;28904;-71
2022/03/12 02:29:43;;;;;;;5.03;4.40;;;6.40;99.90;;;;;;467065;254;28317;-71
2022/03/12 02:31:42;;;;;;;5.97;4.63;;;6.40;99.90;;;;;;466976;254;28375;-71
2022/03/12 02:33:44;;;;;;;5.83;4.30;;;6.50;99.90;;;;;;467053;254;28096;-71
2022/03/12 02:35:46;;;;;;;6.07;5.03;;;6.50;99.90;;;;;;467076;254;28441;-73
2022/03/12 02:37:50;;;;;;;5.00;4.13;;;6.40;99.90;;;;;;466974;254;27950;-72
2022/03/12 02:39:48;;;;;;;4.90;4.37;;;6.40;99.90;;;;;;466754;254;28877;-71
2022/03/12 02:41:48;;;;;;;5.47;4.40;;;6.30;99.90;;;;;;467010;254;28015;-71
2022/03/12 02:43:50;;;;;;;4.80;3.93;;;6.30;99.90;;;;;;467023;254;28151;-71
2022/03/12 02:45:51;;;;;;;6.07;4.50;;;6.30;99.90;;;;;;467067;254;28053;-73
2022/03/12 02:47:55;;;;;;;5.33;4.37;;;6.30;99.90;;;;;;467023;254;27959;-71
2022/03/12 02:49:53;;;;;;;5.47;4.53;;;6.20;99.90;;;;;;466908;254;28460;-71
2022/03/12 02:51:55;;;;;;;6.60;4.43;;;6.20;99.90;;;;;;467006;254;27713;-71
2022/03/12 02:53:56;;;;;;;4.20;3.80;;;6.30;99.90;;;;;;467067;254;27905;-71
2022/03/12 02:55:57;;;;;;;6.60;4.50;;;6.40;99.90;;;;;;467052;254;27955;-72
2022/03/12 02:57:59;;;;;;;5.80;4.70;;;6.30;99.90;;;;;;467029;254;28008;-71
2022/03/12 03:00:08;;;;;;;6.60;4.30;;;6.30;99.90;;;;;;467040;254;29418;-71
2022/03/12 03:02:07;;;;;;;5.33;4.10;;;6.40;99.90;;;;;;466930;254;27964;-74
2022/03/12 03:04:08;;;;;;;5.80;4.30;;;6.40;99.90;;;;;;467054;254;28157;-71
2022/03/12 03:06:09;;;;;;;6.33;4.50;;;6.50;99.90;;;;;;467040;253;27977;-71
2022/03/12 03:08:12;;;;;;;4.03;3.63;;;6.50;99.90;;;;;;467030;254;27982;-71
2022/03/12 03:10:12;;;;;;;5.10;4.43;;;6.50;99.90;;;;;;467021;254;27827;-71
2022/03/12 03:12:13;;;;;;;5.57;4.47;;;6.50;99.90;;;;;;467064;254;28526;-72
2022/03/12 03:14:21;;;;;;;4.80;3.90;;;6.50;99.90;;;;;;467039;254;28524;-71
2022/03/12 03:16:21;;;;;;;6.00;4.63;;;6.50;99.90;;;;;;466561;254;28494;-72
2022/03/12 03:18:17;;;;;;;5.27;4.23;;;6.50;99.90;;;;;;466825;254;28346;-71
2022/03/12 03:20:19;;;;;;;7.00;4.23;;;6.50;99.90;;;;;;467032;254;28520;-71
2022/03/12 03:22:19;;;;;;;6.70;5.03;;;6.50;99.90;;;;;;467066;254;28534;-71
2022/03/12 03:24:21;;;;;;;4.17;3.77;;;6.60;99.90;;;;;;467041;254;27936;-71
2022/03/12 03:26:22;;;;;;;5.20;4.13;;;6.60;99.90;;;;;;467080;254;28122;-72
2022/03/12 03:28:23;;;;;;;6.73;4.57;;;6.60;99.90;;;;;;467026;254;28165;-70
2022/03/12 03:30:24;;;;;;;4.90;4.40;;;6.60;99.90;;;;;;467048;254;27614;-71
2022/03/12 03:32:26;;;;;;;7.23;4.63;;;6.60;99.90;;;;;;467071;254;28197;-74
2022/03/12 03:34:27;;;;;;;5.10;4.20;;;6.70;99.90;;;;;;467041;254;27907;-71
2022/03/12 03:36:28;;;;;;;4.73;4.10;;;6.80;99.90;;;;;;467067;254;27760;-71
2022/03/12 03:38:29;;;;;;;4.63;4.10;;;6.80;99.90;;;;;;467061;254;27949;-71
2022/03/12 03:40:31;;;;;;;4.87;4.03;;;6.80;99.90;;;;;;466729;254;28065;-71
2022/03/12 03:42:33;;;;;;;5.30;4.33;;;6.80;99.90;;;;;;466469;254;27977;-73
2022/03/12 03:44:33;;;;;;;6.77;4.77;;;6.80;99.90;;;;;;466887;254;27587;-71
2022/03/12 03:46:34;;;;;;;4.67;4.20;;;6.80;99.90;;;;;;467076;254;28041;-71
2022/03/12 03:48:37;;;;;;;6.70;4.83;;;6.70;99.90;;;;;;467039;254;27936;-71
2022/03/12 03:50:37;;;;;;;6.67;4.80;;;6.70;99.90;;;;;;466958;254;28013;-71
2022/03/12 03:52:38;;;;;;;5.90;4.50;;;6.70;99.90;;;;;;467074;254;27671;-73
2022/03/12 03:54:40;;;;;;;5.80;4.73;;;6.70;99.90;;;;;;467043;254;28013;-71
2022/03/12 03:56:41;;;;;;;6.73;5.20;;;6.70;99.90;;;;;;467035;254;27533;-71
2022/03/12 03:58:42;;;;;;;8.07;5.03;;;6.70;99.90;;;;;;467023;254;27953;-71
2022/03/12 04:00:43;;;;;;;6.37;5.03;;;6.70;99.90;;;;;;467054;254;28104;-71
2022/03/12 04:02:45;;;;;;;6.90;5.33;;;6.70;99.90;;;;;;467073;254;28450;-74
2022/03/12 04:04:48;;;;;;;6.83;5.17;;;6.60;99.90;;;;;;467006;254;27913;-70
2022/03/12 04:06:47;;;;;;;8.13;5.20;;;6.60;99.90;;;;;;466899;254;27765;-71
2022/03/12 04:08:48;;;;;;;7.77;4.80;;;6.60;99.90;;;;;;467027;254;27899;-71
2022/03/12 04:10:49;;;;;;;8.50;5.00;;;6.60;99.90;;;;;;467049;254;28699;-71
2022/03/12 04:12:51;;;;;;;7.27;5.53;;;6.60;99.90;;;;;;467059;254;28466;-74
2022/03/12 04:14:52;;;;;;;5.20;4.57;;;6.60;99.90;;;;;;467032;254;28815;-71
2022/03/12 04:16:53;;;;;;;7.17;5.50;;;6.60;99.90;;;;;;467045;254;28477;-71
2022/03/12 04:18:55;;;;;;;5.90;4.50;;;6.60;99.90;;;;;;467047;254;28307;-71
2022/03/12 04:20:56;;;;;;;7.33;5.40;;;6.60;99.90;;;;;;467041;254;28437;-71
2022/03/12 04:22:57;;;;;;;5.77;4.70;;;6.60;99.90;;;;;;467037;254;27980;-73
2022/03/12 04:24:58;;;;;;;7.37;5.00;;;6.60;99.90;;;;;;467048;254;28033;-72
2022/03/12 04:27:00;;;;;;;7.00;4.60;;;6.60;99.90;;;;;;467037;254;27590;-71
2022/03/12 04:29:01;;;;;;;6.77;5.10;;;6.60;99.90;;;;;;466994;254;28640;-71
2022/03/12 04:31:02;;;;;;;7.43;5.80;;;6.60;99.90;;;;;;467043;254;27977;-71
2022/03/12 04:33:03;;;;;;;5.60;4.50;;;6.60;99.90;;;;;;467057;254;28229;-74
2022/03/12 04:35:05;;;;;;;6.13;5.00;;;6.60;99.90;;;;;;467033;254;27513;-71
2022/03/12 04:37:06;;;;;;;5.83;4.93;;;6.60;99.90;;;;;;467059;254;28882;-71
2022/03/12 04:39:07;;;;;;;6.07;4.70;;;6.60;99.90;;;;;;467010;254;27814;-70
2022/03/12 04:41:08;;;;;;;6.67;5.13;;;6.60;99.90;;;;;;467079;254;28428;-71
2022/03/12 04:43:10;;;;;;;6.53;4.90;;;6.50;99.90;;;;;;467087;254;28473;-74
2022/03/12 04:45:11;;;;;;;5.60;4.73;;;6.50;99.90;;;;;;467048;254;28537;-71
2022/03/12 04:47:12;;;;;;;6.23;4.20;;;6.30;99.90;;;;;;467034;254;28158;-72
2022/03/12 04:49:13;;;;;;;5.37;4.63;;;6.30;99.90;;;;;;466996;254;28493;-72
2022/03/12 04:51:16;;;;;;;5.60;4.57;;;6.20;99.90;;;;;;467030;254;28130;-71
2022/03/12 04:53:16;;;;;;;6.00;4.93;;;6.30;99.90;;;;;;466973;254;28007;-74
2022/03/12 04:55:17;;;;;;;8.00;5.53;;;6.40;99.90;;;;;;467044;254;27822;-71
2022/03/12 04:57:19;;;;;;;5.80;4.43;;;6.40;99.90;;;;;;467046;254;27955;-72
2022/03/12 04:59:19;;;;;;;6.80;4.90;;;6.50;99.90;;;;;;466993;254;28028;-71
2022/03/12 05:01:21;;;;;;;5.43;4.43;;;6.50;99.90;;;;;;467055;254;27797;-71
2022/03/12 05:03:22;;;;;;;5.97;4.90;;;6.60;99.90;;;;;;467068;254;28060;-74
2022/03/12 05:05:23;;;;;;;5.93;4.90;;;6.60;99.90;;;;;;467018;254;28593;-71
2022/03/12 05:07:26;;;;;;;6.53;5.07;;;6.60;99.90;;;;;;467039;254;28063;-71
2022/03/12 05:09:26;;;;;;;5.40;4.50;;;6.70;99.90;;;;;;466948;254;28045;-71
2022/03/12 05:11:27;;;;;;;5.43;4.53;;;6.90;99.90;;;;;;467038;254;27917;-71
2022/03/12 05:13:28;;;;;;;6.00;4.43;;;6.90;99.90;;;;;;467054;254;28333;-74
2022/03/12 05:15:39;;;;;;;6.57;4.60;;;7.10;99.90;;;;;;467031;254;27611;-71
2022/03/12 05:17:34;;;;;;;4.87;4.10;;;7.20;99.90;;;;;;466615;254;27861;-72
2022/03/12 05:19:35;;;;;;;6.33;4.80;;;7.30;99.90;;;;;;466844;254;27993;-71
2022/03/12 05:21:34;;;;;;;5.80;4.40;;;7.40;99.90;;;;;;466853;254;28339;-71
2022/03/12 05:23:34;;;;;;;5.30;4.37;;;7.40;99.90;;;;;;467061;254;28500;-72
2022/03/12 05:25:39;;;;;;;4.80;3.80;;;7.30;99.90;;;;;;467075;254;28482;-71
2022/03/12 05:27:37;;;;;;;5.30;4.13;;;7.30;99.90;;;;;;466846;254;28558;-73
2022/03/12 05:29:39;;;;;;;5.80;4.43;;;7.30;99.90;;;;;;467024;254;28034;-71
2022/03/12 05:31:39;;;;;;;4.80;3.83;;;7.40;99.90;;;;;;466986;254;27604;-71
2022/03/12 05:33:41;;;;;;;5.23;4.30;;;7.50;99.90;;;;;;467030;254;28047;-71
2022/03/12 05:35:42;;;;;;;4.83;4.07;;;7.40;99.90;;;;;;467065;254;27655;-71
2022/03/12 05:37:44;;;;;;;6.40;4.17;;;7.40;99.90;;;;;;467028;254;28127;-72
2022/03/12 05:39:44;;;;;;;4.57;4.13;;;7.40;99.90;;;;;;467005;254;28887;-71
2022/03/12 05:41:48;;;;;;;4.50;3.70;;;7.30;99.90;;;;;;467013;254;28108;-70
2022/03/12 05:43:47;;;;;;;5.30;4.00;;;7.30;99.90;;;;;;466911;254;27552;-71
2022/03/12 05:45:48;;;;;;;4.90;4.03;;;7.30;99.90;;;;;;467021;254;27450;-71
2022/03/12 05:47:50;;;;;;;5.10;4.37;;;7.50;99.90;;;;;;467028;254;27970;-71
2022/03/12 05:49:51;;;;;;;6.93;4.47;;;7.50;99.90;;;;;;467005;254;27941;-70
2022/03/12 05:51:52;;;;;;;5.10;4.33;;;7.60;99.90;;;;;;467027;254;27943;-70
2022/03/12 05:53:53;;;;;;;5.10;4.30;;;7.70;99.90;;;;;;467045;254;27931;-70
2022/03/12 05:55:54;;;;;;;5.23;4.20;;;7.70;99.90;;;;;;467038;254;28327;-71
2022/03/12 05:57:56;;;;;;;6.77;3.97;;;7.70;99.90;;;;;;467040;254;27911;-72
2022/03/12 05:59:57;;;;;;;5.93;4.13;;;7.70;99.90;;;;;;466999;254;28423;-70
2022/03/12 06:01:58;;;;;;;5.83;4.23;;;7.70;99.90;;;;;;467038;254;28434;-71
2022/03/12 06:04:03;;;;;;;5.47;4.73;;;7.80;99.90;;;;;;467044;254;29055;-71
2022/03/12 06:06:01;;;;;;;6.57;4.10;;;7.80;99.90;;;;;;466973;254;28281;-70
2022/03/12 06:08:03;;;;;;;6.07;4.60;;;7.80;99.90;;;;;;467088;254;28435;-72
2022/03/12 06:10:03;;;;;;;6.50;4.33;;;7.80;99.90;;;;;;467029;254;28004;-70
2022/03/12 06:12:05;;;;;;;5.07;3.97;;;7.80;99.90;;;;;;467063;254;27972;-71
2022/03/12 06:14:07;;;;;;;5.80;4.40;;;7.80;99.90;;;;;;467014;254;27933;-70
2022/03/12 06:16:08;;;;;;;4.90;4.40;;;7.80;99.90;;;;;;466944;254;27949;-70
2022/03/12 06:18:11;;;;;;;5.17;4.13;;;7.90;99.90;;;;;;467018;254;28025;-72
2022/03/12 06:20:12;;;;;;;5.03;4.30;;;7.90;99.90;;;;;;467042;254;27969;-72
2022/03/12 06:22:14;;;;;;;6.03;3.90;;;7.90;99.90;;;;;;467060;254;27950;-70
2022/03/12 06:24:15;;;;;;;5.40;4.33;;;8.00;99.90;;;;;;467066;254;27928;-70
2022/03/12 06:26:17;;;;;;;5.27;4.57;;;8.00;99.90;;;;;;467043;254;28676;-71
2022/03/12 06:28:17;;;;;;;5.93;4.70;;;8.00;99.90;;;;;;467023;254;27953;-70
2022/03/12 06:30:19;;;;;;;7.30;4.70;;;8.00;99.90;;;;;;467049;254;27837;-71
2022/03/12 06:32:21;;;;;;;5.60;5.00;;;8.00;99.90;;;;;;467045;254;27939;-70
2022/03/12 06:34:22;;;;;;;8.60;4.93;;;8.00;99.90;;;;;;467014;254;28074;-71
2022/03/12 06:36:23;;;;;;;6.10;4.80;;;8.00;99.90;;;;;;467045;254;28074;-73
2022/03/12 06:38:26;;;;;;;4.47;4.07;;;8.10;99.90;;;;;;467074;254;28587;-71
2022/03/12 06:40:28;;;;;;;6.43;4.00;;;8.10;99.90;;;;;;466898;254;28835;-71
2022/03/12 06:42:31;;;;;;;6.47;4.50;;;8.10;99.90;;;;;;467039;254;27974;-71
2022/03/12 06:44:33;;;;;;;5.70;4.60;;;8.10;99.90;;;;;;466983;254;27831;-71
2022/03/12 06:46:35;;;;;;;6.30;5.37;;;8.20;99.90;;;;;;467034;254;27805;-70
2022/03/12 06:48:36;;;;;;;5.10;4.50;;;8.20;99.90;;;;;;467025;254;28055;-71
2022/03/12 06:50:38;;;;;;;5.77;4.80;;;8.20;99.90;;;;;;467042;254;27977;-73
2022/03/12 06:52:43;;;;;;;6.83;4.63;;;8.20;99.90;;;;;;467038;254;28014;-71
2022/03/12 06:54:39;;;;;;;6.57;4.60;;;8.20;99.90;;;;;;466729;254;27838;-71
2022/03/12 06:56:41;;;;;;;6.83;4.63;;;8.30;99.90;;;;;;467065;254;28000;-71
2022/03/12 06:58:42;;;;;;;5.43;4.00;;;8.30;99.90;;;;;;467086;254;27703;-71
2022/03/12 07:00:43;;;;;;;4.17;3.77;;;8.30;99.90;;;;;;467031;254;27732;-72
2022/03/12 07:02:44;;;;;;;5.37;4.30;;;8.30;99.90;;;;;;467069;254;27993;-71
2022/03/12 07:04:46;;;;;;;4.80;4.30;;;8.30;99.90;;;;;;467054;254;27629;-71
2022/03/12 07:06:47;;;;;;;6.20;4.33;;;8.30;99.90;;;;;;467080;254;27999;-71
2022/03/12 07:08:49;;;;;;;4.57;3.93;;;8.30;99.90;;;;;;466182;254;27700;-71
2022/03/12 07:10:49;;;;;;;4.10;3.70;;;8.30;99.90;;;;;;465271;255;27951;-72
2022/03/12 07:12:51;;;;;;;5.60;4.57;;;8.40;99.90;;;;;;465337;254;28090;-70
2022/03/12 07:14:52;;;;;;;5.40;4.57;;;8.50;99.90;;;;;;465323;254;28545;-71
2022/03/12 07:16:53;;;;;;;4.70;4.03;;;8.50;99.90;;;;;;465326;254;28636;-70
2022/03/12 07:18:56;;;;;;;4.60;3.70;;;8.40;99.90;;;;;;465342;254;28582;-71
2022/03/12 07:20:56;;;;;;;5.70;4.47;;;8.40;99.90;;;;;;465191;255;28570;-72
2022/03/12 07:22:57;;;;;;;6.27;4.70;;;8.40;99.90;;;;;;465311;254;27651;-71
2022/03/12 07:24:58;;;;;;;5.77;4.67;;;8.50;99.90;;;;;;465317;254;27934;-71
2022/03/12 07:27:00;;;;;;;5.03;4.00;;;8.40;99.90;;;;;;465321;254;28192;-73
2022/03/12 07:29:01;;;;;;;5.43;4.57;;;8.40;99.90;;;;;;465349;254;28020;-70
2022/03/12 07:31:02;;;;;;;6.87;4.67;;;8.40;99.90;;;;;;465296;254;27788;-71
2022/03/12 07:33:03;;;;;;;7.30;4.80;;;8.40;99.90;;;;;;465256;254;28029;-70
2022/03/12 07:35:04;;;;;;;5.97;4.80;;;8.40;99.90;;;;;;465311;254;28012;-71
2022/03/12 07:37:08;;;;;;;6.03;4.77;;;8.40;99.90;;;;;;465320;254;27949;-74
2022/03/12 07:39:07;;;;;;;6.87;4.23;;;8.50;99.90;;;;;;465086;255;27914;-70
2022/03/12 07:41:08;;;;;;;5.00;4.47;;;8.60;99.90;;;;;;465306;254;28483;-71
2022/03/12 07:43:10;;;;;;;4.80;4.30;;;8.60;99.90;;;;;;465293;254;28022;-70
2022/03/12 07:45:11;;;;;;;5.37;4.80;;;8.70;99.90;;;;;;465321;254;28409;-70
2022/03/12 07:47:12;;;;;;;4.90;4.37;;;8.80;99.90;;;;;;465355;254;28436;-73
2022/03/12 07:49:13;;;;;;;5.70;4.60;;;8.80;99.90;;;;;;464988;254;28087;-71
2022/03/12 07:51:15;;;;;;;5.60;4.83;;;8.90;99.90;;;;;;465199;254;28096;-71
2022/03/12 07:53:16;;;;;;;5.70;4.37;;;9.10;99.90;;;;;;465305;254;28142;-70
2022/03/12 07:55:17;;;;;;;6.10;4.73;;;9.10;99.90;;;;;;465330;254;28009;-70
2022/03/12 07:57:19;;;;;;;7.10;5.23;;;9.30;99.90;;;;;;465328;254;28204;-73
2022/03/12 07:59:20;;;;;;;8.30;5.27;;;9.40;99.90;;;;;;465274;254;28099;-71
2022/03/12 08:01:21;;;;;;;5.50;4.90;;;9.40;99.90;;;;;;465315;254;27947;-72
2022/03/12 08:03:23;;;;;;;4.90;4.40;;;9.40;99.90;;;;;;465318;254;28123;-70
2022/03/12 08:05:25;;;;;;;6.77;4.90;;;9.50;99.90;;;;;;465271;254;28050;-71
2022/03/12 08:07:26;;;;;;;5.60;4.40;;;9.50;99.90;;;;;;465261;255;28119;-72
2022/03/12 08:09:26;;;;;;;4.67;3.90;;;9.50;99.90;;;;;;465234;254;28065;-70
2022/03/12 08:11:32;;;;;;;5.80;4.67;;;9.50;99.90;;;;;;465320;254;27809;-72
2022/03/12 08:13:31;;;;;;;4.70;3.93;;;9.50;99.90;;;;;;465158;255;28046;-70
2022/03/12 08:15:33;;;;;;;5.40;4.90;;;9.50;99.90;;;;;;465268;254;28038;-71
2022/03/12 08:17:34;;;;;;;6.90;4.93;;;9.50;99.90;;;;;;465310;254;28051;-71
2022/03/12 08:19:38;;;;;;;6.17;4.73;;;9.50;99.90;;;;;;465289;254;28171;-72
2022/03/12 08:21:37;;;;;;;7.97;4.63;;;9.50;99.90;;;;;;465016;255;27944;-70
2022/03/12 08:23:38;;;;;;;6.30;5.17;;;9.50;99.90;;;;;;465303;254;28058;-71
2022/03/12 08:25:39;;;;;;;7.20;5.50;;;9.50;99.90;;;;;;465289;254;27778;-70
2022/03/12 08:27:40;;;;;;;7.40;5.50;;;9.50;99.90;;;;;;465326;254;28026;-70
2022/03/12 08:29:41;;;;;;;7.47;5.03;;;9.50;99.90;;;;;;465298;254;28044;-72
2022/03/12 08:31:43;;;;;;;6.60;5.00;;;9.50;99.90;;;;;;465292;254;28468;-70
2022/03/12 08:33:44;;;;;;;6.10;5.43;;;9.50;99.90;;;;;;465296;254;28548;-71
2022/03/12 08:35:45;;;;;;;9.87;6.33;;;9.50;99.90;;;;;;465268;254;28355;-70
2022/03/12 08:37:46;;;;;;;6.90;5.57;;;9.50;99.90;;;;;;465308;254;28621;-71
2022/03/12 08:39:48;;;;;;;6.80;5.13;;;9.50;99.90;;;;;;465349;254;28535;-73
2022/03/12 08:41:49;;;;;;;6.60;5.00;;;9.60;99.90;;;;;;465279;254;27993;-71
2022/03/12 08:43:50;;;;;;;6.43;5.20;;;9.60;99.90;;;;;;465340;254;28210;-71
2022/03/12 08:45:51;;;;;;;6.00;4.60;;;9.70;99.90;;;;;;465249;254;28077;-72
2022/03/12 08:47:53;;;;;;;5.70;4.23;;;9.70;99.90;;;;;;465314;254;28110;-72
2022/03/12 08:49:54;;;;;;;6.17;5.10;;;9.70;99.90;;;;;;465349;254;28151;-73
2022/03/12 08:51:56;;;;;;;5.20;4.47;;;9.80;99.90;;;;;;465304;254;28138;-73
2022/03/12 08:53:56;;;;;;;6.40;5.23;;;9.80;99.90;;;;;;465310;254;28022;-73
2022/03/12 08:56:00;;;;;;;6.30;5.10;;;9.90;99.90;;;;;;465292;254;28208;-72
2022/03/12 08:57:59;;;;;;;7.40;4.87;;;9.90;99.90;;;;;;465129;255;28142;-72
2022/03/12 09:00:00;;;;;;;5.80;4.90;;;10.00;99.90;;;;;;465308;254;28282;-73
2022/03/12 09:02:01;;;;;;;7.17;5.10;;;10.10;99.90;;;;;;465302;255;28000;-72
2022/03/12 09:04:03;;;;;;;6.43;4.67;;;10.10;99.90;;;;;;465312;254;28103;-72
2022/03/12 09:06:04;;;;;;;6.47;4.30;;;10.20;99.90;;;;;;465285;254;28712;-71
2022/03/12 09:08:05;;;;;;;6.33;5.00;;;10.20;99.90;;;;;;465308;254;28879;-72
2022/03/12 09:10:06;;;;;;;8.17;4.83;;;10.30;99.90;;;;;;465327;254;28931;-73
2022/03/12 09:12:08;;;;;;;5.90;4.50;;;10.30;99.90;;;;;;465269;254;28612;-72
2022/03/12 09:14:10;;;;;;;9.93;5.67;;;10.30;99.90;;;;;;465295;254;28397;-73
2022/03/12 09:16:10;;;;;;;7.70;5.80;;;10.40;99.90;;;;;;465156;255;28275;-72
2022/03/12 09:18:12;;;;;;;10.57;5.47;;;10.40;99.90;;;;;;465305;254;28282;-73
2022/03/12 09:20:13;;;;;;;7.10;4.80;;;10.40;99.90;;;;;;465282;254;28401;-74
2022/03/12 09:22:14;;;;;;;8.80;5.20;;;10.50;99.90;;;;;;465233;254;28276;-72
2022/03/12 09:24:15;;;;;;;7.90;5.60;;;10.50;99.90;;;;;;465300;254;28406;-72
2022/03/12 09:26:17;;;;;;;5.77;4.83;;;10.50;99.90;;;;;;465263;254;28688;-72
2022/03/12 09:28:18;;;;;;;7.40;5.10;;;10.50;99.90;;;;;;465257;254;28436;-72
2022/03/12 09:30:19;;;;;;;6.30;4.70;;;10.60;99.90;;;;;;465316;254;28983;-72
2022/03/12 09:32:20;;;;;;;6.97;4.73;;;10.60;99.90;;;;;;465283;254;29397;-71
2022/03/12 09:34:21;;;;;;;6.20;4.77;;;10.50;99.90;;;;;;465300;254;28898;-73
2022/03/12 09:36:23;;;;;;;7.10;5.50;;;10.60;99.90;;;;;;465268;254;28365;-72
2022/03/12 09:39:42;;;;;;;6.73;4.90;;;10.60;99.90;;;;;;502088;233;36301;-73
2022/03/12 09:41:43;;;;;;;8.20;5.27;;;10.60;99.90;;;;;;494086;240;28061;-73
2022/03/12 09:43:44;;;;;;;5.20;4.70;;;10.60;99.90;;;;;;494166;240;28189;-73
2022/03/12 09:45:45;;;;;;;6.30;4.40;;;10.60;99.90;;;;;;493918;240;28336;-71
2022/03/12 09:47:48;;;;;;;5.83;4.50;;;;;;;;;;491602;237;28214;-73
2022/03/12 09:49:50;;;;;;;5.60;4.87;;;;;;;;;;490452;242;28307;-73
2022/03/12 09:51:52;;;;;;;6.43;4.97;;;;;;;;;;490481;242;28266;-73
2022/03/12 09:53:54;;;;;;;6.40;4.50;;;;;;;;;;490506;242;28775;-73
2022/03/12 09:55:56;;;;;;;4.33;3.80;;;;;;;;;;490530;242;28265;-72
2022/03/12 09:57:58;;;;;;;5.80;4.60;;;;;;;;;;490457;242;29453;-72
2022/03/12 10:00:00;;;;;;;6.93;4.27;;;;;;;;;;490516;242;28762;-72
2022/03/12 10:02:02;;;;;;;5.03;4.00;;;;;;;;;;490438;242;28833;-73
2022/03/12 10:04:05;;;;;;;4.70;4.23;;;;;;;;;;490518;242;28060;-73
2022/03/12 10:06:07;;;;;;;4.40;3.90;;;;;;;;;;490489;242;28540;-72
2022/03/12 10:08:09;;;;;;;5.00;3.90;;;;;;;;;;490443;242;28124;-73
2022/03/12 10:10:11;;;;;;;5.00;4.13;;;;;;;;;;490517;242;28400;-72
2022/03/12 10:12:14;;;;;;;6.60;5.00;;;;;;;;;;490436;242;28337;-73
2022/03/12 10:14:16;;;;;;;4.60;4.17;;;;;;;;;;490462;242;28729;-73
2022/03/12 10:16:18;;;;;;;7.13;4.67;;;;;;;;;;490445;242;29064;-73
2022/03/12 10:18:20;;;;;;;5.00;4.50;;;;;;;;;;490426;242;28079;-73
2022/03/12 10:20:21;;;;;;;4.90;4.43;;;;;;;;;;490428;242;28976;-72
2022/03/12 10:22:24;;;;;;;6.50;5.23;;;;;;;;;;490406;242;28538;-73
2022/03/12 10:24:26;;;;;;;7.87;5.13;;;;;;;;;;490403;242;28816;-72
2022/03/12 10:26:28;;;;;;;7.40;5.27;;;;;;;;;;490390;242;28110;-73
2022/03/12 10:28:34;;;;;;;6.17;4.50;;;;;;;;;;492425;240;28323;-73
2022/03/12 10:30:34;;;;;;;4.23;3.80;;;;;;;;;;493483;240;27898;-72
2022/03/12 10:32:41;;;;;;;5.60;4.70;;;;;;;;;;493594;239;27494;-74
2022/03/12 10:34:42;;;;;;;7.20;5.07;;;;;;;;;;493467;240;27827;-72
2022/03/12 10:36:41;;;;;;;4.97;4.23;;;;;;;;;;493724;240;27614;-73
2022/03/12 10:38:43;;;;;;;5.17;4.53;;;;;;;;;;492367;236;27601;-73
2022/03/12 10:40:45;;;;;;;5.20;3.93;;;;;;;;;;495495;236;27670;-72
2022/03/12 10:42:47;;;;;;;4.20;3.80;;;;;;;;;;503273;236;27378;-72
2022/03/12 10:44:50;;;;;;;6.63;4.30;;;;;;;;;;503254;236;27554;-72
2022/03/12 10:46:52;;;;;;;5.63;4.10;;;;;;;;;;503259;236;27578;-72